createdAt,value
2023-01-07T00:02:25.928Z,2.15
2023-01-07T00:06:49.984Z,2.25
2023-01-07T00:11:21.937Z,2.03
2023-01-07T00:15:43.930Z,1.80
2023-01-07T00:20:06.662Z,1.65
2023-01-07T00:24:28.585Z,2.00
2023-01-07T00:28:52.399Z,1.88
2023-01-07T00:33:15.790Z,2.00
2023-01-07T00:37:50.004Z,1.83
2023-01-07T00:42:30.738Z,1.75
2023-01-07T00:46:53.509Z,1.67
2023-01-07T00:51:18.180Z,1.70
2023-01-07T00:55:40.029Z,1.75
2023-01-07T01:00:01.747Z,1.80
2023-01-07T01:04:24.671Z,1.75
2023-01-07T01:08:47.868Z,1.60
2023-01-07T01:13:16.206Z,1.70
2023-01-07T01:17:41.031Z,1.77
2023-01-07T01:22:03.197Z,1.52
2023-01-07T01:26:25.404Z,1.60
2023-01-07T01:30:55.816Z,1.70
2023-01-07T01:35:20.219Z,1.48
2023-01-07T01:39:42.668Z,1.45
2023-01-07T01:45:00.110Z,1.85
2023-01-07T01:49:37.293Z,1.75
2023-01-07T01:53:59.809Z,1.60
2023-01-07T01:58:34.864Z,1.80
2023-01-07T02:02:59.532Z,1.80
2023-01-07T02:07:21.919Z,1.75
2023-01-07T02:12:06.356Z,2.13
2023-01-07T02:16:46.273Z,2.17
2023-01-07T02:21:26.054Z,2.30
2023-01-07T02:26:39.351Z,2.03
2023-01-07T02:31:42.531Z,2.65
2023-01-07T02:36:40.677Z,2.50
2023-01-07T02:41:58.929Z,2.63
2023-01-07T02:47:06.641Z,2.47
2023-01-07T02:51:38.001Z,2.88
2023-01-07T02:56:49.555Z,2.30
2023-01-07T03:01:34.229Z,2.33
2023-01-07T03:06:33.373Z,2.35
2023-01-07T03:11:04.199Z,2.20
2023-01-07T03:15:45.120Z,1.98
2023-01-07T03:20:08.006Z,1.85
2023-01-07T03:24:32.344Z,2.10
2023-01-07T03:28:56.190Z,2.03
2023-01-07T03:34:03.252Z,1.85
2023-01-07T03:38:27.695Z,1.90
2023-01-07T03:42:50.198Z,1.90
2023-01-07T03:47:16.811Z,2.60
2023-01-07T03:51:38.742Z,2.35
2023-01-07T03:56:00.817Z,1.95
2023-01-07T04:00:23.292Z,1.88
2023-01-07T04:04:50.768Z,2.20
2023-01-07T04:09:18.960Z,1.77
2023-01-07T04:13:41.314Z,1.90
2023-01-07T04:18:03.517Z,2.22
2023-01-07T04:22:25.679Z,2.10
2023-01-07T04:26:48.116Z,2.20
2023-01-07T04:31:10.194Z,2.05
2023-01-07T04:35:33.930Z,2.05
2023-01-07T04:39:57.365Z,1.90
2023-01-07T04:44:19.300Z,2.30
2023-01-07T04:48:41.197Z,1.80
2023-01-07T04:53:03.367Z,2.22
2023-01-07T04:57:26.460Z,1.63
2023-01-07T05:01:49.305Z,1.90
2023-01-07T05:06:12.127Z,1.83
2023-01-07T05:10:34.187Z,1.77
2023-01-07T05:14:57.297Z,1.80
2023-01-07T05:19:19.388Z,1.67
2023-01-07T05:23:43.986Z,1.63
2023-01-07T05:28:06.648Z,1.73
2023-01-07T05:32:31.671Z,1.58
2023-01-07T05:36:53.991Z,1.70
2023-01-07T05:41:16.171Z,1.75
2023-01-07T05:45:38.334Z,1.58
2023-01-07T05:50:00.213Z,1.50
2023-01-07T05:54:22.113Z,1.58
2023-01-07T05:58:43.898Z,1.40
2023-01-07T06:03:06.372Z,1.55
2023-01-07T06:07:28.072Z,1.30
2023-01-07T06:11:49.826Z,1.38
2023-01-07T06:16:13.953Z,1.30
2023-01-07T06:20:35.641Z,1.40
2023-01-07T06:24:57.874Z,1.40
2023-01-07T06:29:19.744Z,1.42
2023-01-07T06:33:41.624Z,1.42
2023-01-07T06:38:03.431Z,1.20
2023-01-07T06:42:25.801Z,1.20
2023-01-07T06:46:47.369Z,1.25
2023-01-07T06:51:09.731Z,1.42
2023-01-07T06:55:31.504Z,1.10
2023-01-07T06:59:53.659Z,1.52
2023-01-07T07:04:15.670Z,1.63
2023-01-07T07:08:37.841Z,1.50
2023-01-07T07:12:59.755Z,1.50
2023-01-07T07:17:21.575Z,1.70
2023-01-07T07:21:43.521Z,1.50
2023-01-07T07:26:05.706Z,1.58
2023-01-07T07:30:47.242Z,1.63
2023-01-07T07:35:10.593Z,1.80
2023-01-07T07:39:32.486Z,1.90
2023-01-07T07:43:54.374Z,1.70
2023-01-07T07:48:16.729Z,1.70
2023-01-07T07:52:40.078Z,1.58
2023-01-07T07:57:03.843Z,1.45
2023-01-07T08:01:25.835Z,1.50
2023-01-07T08:05:47.634Z,1.50
2023-01-07T08:10:10.018Z,1.60
2023-01-07T08:14:32.015Z,1.52
2023-01-07T08:18:53.613Z,1.58
2023-01-07T08:23:15.455Z,1.40
2023-01-07T08:27:37.349Z,1.25
2023-01-07T08:31:59.390Z,1.52
2023-01-07T08:36:23.508Z,1.60
2023-01-07T08:40:45.601Z,1.50
2023-01-07T08:45:09.697Z,1.40
2023-01-07T08:49:31.941Z,1.17
2023-01-07T08:53:55.486Z,1.80
2023-01-07T08:58:17.620Z,1.80
2023-01-07T09:02:39.961Z,1.60
2023-01-07T09:07:01.803Z,1.30
2023-01-07T09:11:23.816Z,1.27
2023-01-07T09:15:45.987Z,1.55
2023-01-07T09:20:09.006Z,1.40
2023-01-07T09:24:30.599Z,1.50
2023-01-07T09:28:52.524Z,1.38
2023-01-07T09:33:14.642Z,1.55
2023-01-07T09:37:37.293Z,1.50
2023-01-07T09:42:12.737Z,1.20
2023-01-07T09:46:35.028Z,1.05
2023-01-07T09:51:23.989Z,0.93
2023-01-07T09:56:11.848Z,0.95
2023-01-07T10:00:33.283Z,1.10
2023-01-07T10:05:13.408Z,0.70
2023-01-07T10:09:50.164Z,0.93
2023-01-07T10:14:26.981Z,1.27
2023-01-07T10:19:24.996Z,1.75
2023-01-07T10:23:55.387Z,1.20
2023-01-07T10:28:37.655Z,0.95
2023-01-07T10:33:17.824Z,1.23
2023-01-07T10:37:42.385Z,1.10
2023-01-07T10:42:10.297Z,1.48
2023-01-07T10:47:00.763Z,1.40
2023-01-07T10:52:04.888Z,1.20
2023-01-07T10:56:42.531Z,1.17
2023-01-07T11:01:06.941Z,1.10
2023-01-07T11:05:39.298Z,1.88
2023-01-07T11:10:04.922Z,1.30
2023-01-07T11:14:30.972Z,1.23
2023-01-07T11:19:10.024Z,1.40
2023-01-07T11:23:43.795Z,1.42
2023-01-07T11:28:18.962Z,1.45
2023-01-07T11:32:41.488Z,1.63
2023-01-07T11:37:05.293Z,1.35
2023-01-07T11:42:49.123Z,1.35
2023-01-07T11:47:17.614Z,1.77
2023-01-07T11:51:40.713Z,1.25
2023-01-07T11:56:05.966Z,1.40
2023-01-07T12:00:31.506Z,1.20
2023-01-07T12:05:13.499Z,1.67
2023-01-07T12:09:42.024Z,1.38
2023-01-07T12:14:23.881Z,1.70
2023-01-07T12:19:04.379Z,1.17
2023-01-07T12:23:34.094Z,1.73
2023-01-07T12:28:00.460Z,1.20
2023-01-07T12:32:51.512Z,1.55
2023-01-07T12:37:44.293Z,1.30
2023-01-07T12:42:26.702Z,1.58
2023-01-07T12:47:31.211Z,1.38
2023-01-07T12:52:08.248Z,1.20
2023-01-07T12:56:54.305Z,1.13
2023-01-07T13:01:42.248Z,1.33
2023-01-07T13:06:15.578Z,1.50
2023-01-07T13:11:02.849Z,1.45
2023-01-07T13:15:29.180Z,1.80
2023-01-07T13:19:52.157Z,1.70
2023-01-07T13:25:13.643Z,1.30
2023-01-07T13:30:07.088Z,1.55
2023-01-07T13:34:50.074Z,1.60
2023-01-07T13:39:40.672Z,1.70
2023-01-07T13:44:25.336Z,2.03
2023-01-07T13:48:53.968Z,1.83
2023-01-07T13:53:16.166Z,1.92
2023-01-07T13:57:40.969Z,1.73
2023-01-07T14:02:19.779Z,2.00
2023-01-07T14:06:46.632Z,1.98
2023-01-07T14:11:08.398Z,2.10
2023-01-07T14:15:50.333Z,2.50
2023-01-07T14:20:48.624Z,2.30
2023-01-07T14:25:49.004Z,1.70
2023-01-07T14:30:28.182Z,1.80
2023-01-07T14:35:10.811Z,1.77
2023-01-07T14:39:35.534Z,1.90
2023-01-07T14:44:29.569Z,1.70
2023-01-07T14:49:03.525Z,1.83
2023-01-07T14:54:09.132Z,2.22
2023-01-07T14:58:47.610Z,2.35
2023-01-07T15:04:08.296Z,2.55
2023-01-07T15:09:29.532Z,2.00
2023-01-07T15:14:23.210Z,2.30
2023-01-07T15:18:52.564Z,2.33
2023-01-07T15:23:52.575Z,2.60
2023-01-07T15:29:04.035Z,2.53
2023-01-07T15:33:44.678Z,2.55
2023-01-07T15:38:29.979Z,3.07
2023-01-07T15:42:55.510Z,2.97
2023-01-07T15:47:35.370Z,2.65
2023-01-07T15:52:01.856Z,3.53
2023-01-07T15:56:24.112Z,3.05
2023-01-07T16:00:53.711Z,3.20
2023-01-07T16:05:19.793Z,3.58
2023-01-07T16:09:52.873Z,3.20
2023-01-07T16:14:19.333Z,3.60
2023-01-07T16:18:42.054Z,3.53
2023-01-07T16:23:10.427Z,3.50
2023-01-07T16:27:32.614Z,5.40
2023-01-07T16:31:55.711Z,3.65
2023-01-07T16:36:38.351Z,3.72
2023-01-07T16:41:00.791Z,3.55
2023-01-07T16:45:30.194Z,4.38
2023-01-07T16:50:20.121Z,4.32
2023-01-07T16:54:46.577Z,4.53
2023-01-07T16:59:17.814Z,5.25
2023-01-07T17:03:53.184Z,6.35
2023-01-07T17:08:20.183Z,5.45
2023-01-07T17:12:42.575Z,6.13
2023-01-07T17:17:33.169Z,6.07
2023-01-07T17:21:56.911Z,5.93
2023-01-07T17:26:24.110Z,6.93
2023-01-07T17:30:46.132Z,7.07
2023-01-07T17:35:22.867Z,6.03
2023-01-07T17:39:45.119Z,5.30
2023-01-07T17:44:14.712Z,5.35
2023-01-07T17:48:37.135Z,5.57
2023-01-07T17:52:59.584Z,5.55
2023-01-07T17:57:21.735Z,6.38
2023-01-07T18:01:44.756Z,7.72
2023-01-07T18:06:20.197Z,8.43
2023-01-07T18:11:04.831Z,7.45
2023-01-07T18:15:27.610Z,7.72
2023-01-07T18:19:50.788Z,4.97
2023-01-07T18:24:21.476Z,3.67
2023-01-07T18:28:43.792Z,4.05
2023-01-07T18:33:08.015Z,3.92
2023-01-07T18:37:30.170Z,3.70
2023-01-07T18:41:54.090Z,3.05
2023-01-07T18:46:17.620Z,3.42
2023-01-07T18:50:45.458Z,3.53
2023-01-07T18:55:09.471Z,3.38
2023-01-07T18:59:31.873Z,3.60
2023-01-07T19:03:54.018Z,3.50
2023-01-07T19:08:16.290Z,3.30
2023-01-07T19:12:38.269Z,3.05
2023-01-07T19:17:00.896Z,3.28
2023-01-07T19:21:23.031Z,3.25
2023-01-07T19:25:46.269Z,3.90
2023-01-07T19:30:09.134Z,3.22
2023-01-07T19:34:31.351Z,3.42
2023-01-07T19:38:53.529Z,3.55
2023-01-07T19:43:15.762Z,3.80
2023-01-07T19:47:39.453Z,3.10
2023-01-07T19:52:01.382Z,2.80
2023-01-07T19:56:23.770Z,3.40
2023-01-07T20:00:45.911Z,3.30
2023-01-07T20:05:08.534Z,3.65
2023-01-07T20:09:31.090Z,3.20
2023-01-07T20:13:53.367Z,4.00
2023-01-07T20:18:17.593Z,3.97
2023-01-07T20:22:40.092Z,4.20
2023-01-07T20:27:02.410Z,4.50
2023-01-07T20:31:26.723Z,4.32
2023-01-07T20:35:48.551Z,4.70
2023-01-07T20:40:11.371Z,4.70
2023-01-07T20:44:34.799Z,5.00
2023-01-07T20:48:57.983Z,4.20
2023-01-07T20:53:20.451Z,4.97
2023-01-07T20:57:42.497Z,4.90
2023-01-07T21:02:04.657Z,4.47
2023-01-07T21:06:26.901Z,4.65
2023-01-07T21:10:48.850Z,5.65
2023-01-07T21:15:13.267Z,4.95
2023-01-07T21:19:37.270Z,4.80
2023-01-07T21:23:59.393Z,4.90
2023-01-07T21:28:21.493Z,5.05
2023-01-07T21:32:44.269Z,6.15
2023-01-07T21:37:06.128Z,5.90
2023-01-07T21:41:29.360Z,5.85
2023-01-07T21:45:51.429Z,6.82
2023-01-07T21:50:15.297Z,6.50
2023-01-07T21:54:38.009Z,6.90
2023-01-07T21:59:00.386Z,7.00
2023-01-07T22:03:22.580Z,6.43
2023-01-07T22:07:44.657Z,7.20
2023-01-07T22:12:06.750Z,7.00
2023-01-07T22:16:31.568Z,8.90
2023-01-07T22:20:56.134Z,9.25
2023-01-07T22:25:18.252Z,10.25
2023-01-07T22:29:40.379Z,10.05
2023-01-07T22:34:03.629Z,9.88
2023-01-07T22:38:27.995Z,11.50
2023-01-07T22:43:00.794Z,11.13
2023-01-07T22:47:29.284Z,11.93
2023-01-07T22:51:51.477Z,11.63
2023-01-07T22:56:14.230Z,11.18
2023-01-07T23:00:59.701Z,11.35
2023-01-07T23:05:22.055Z,11.18
2023-01-07T23:09:44.216Z,9.48
2023-01-07T23:14:06.228Z,10.38
2023-01-07T23:18:28.381Z,9.35
2023-01-07T23:22:50.762Z,10.02
2023-01-07T23:27:13.271Z,9.15
2023-01-07T23:31:36.874Z,9.37
2023-01-07T23:36:07.800Z,9.52
2023-01-07T23:40:30.560Z,10.07
2023-01-07T23:44:52.616Z,9.35
2023-01-07T23:49:14.653Z,8.23
2023-01-07T23:53:37.222Z,8.45
2023-01-07T23:57:59.161Z,8.57
